sensor_id;sensor_type;location;lat;lon;timestamp;temperature;humidity
14140;DHT22;7150;53.514;9.988;2023-03-17T00:00:19;12.60;59.70
14140;DHT22;7150;53.514;9.988;2023-03-17T00:02:47;12.60;59.70
14140;DHT22;7150;53.514;9.988;2023-03-17T00:05:23;12.60;59.80
14140;DHT22;7150;53.514;9.988;2023-03-17T00:07:50;12.60;59.90
14140;DHT22;7150;53.514;9.988;2023-03-17T00:10:22;12.60;60.00
14140;DHT22;7150;53.514;9.988;2023-03-17T00:12:51;12.60;60.00
14140;DHT22;7150;53.514;9.988;2023-03-17T00:15:21;12.60;59.90
14140;DHT22;7150;53.514;9.988;2023-03-17T00:17:47;12.60;60.10
14140;DHT22;7150;53.514;9.988;2023-03-17T00:20:34;12.50;60.80
14140;DHT22;7150;53.514;9.988;2023-03-17T00:23:01;12.60;60.00
14140;DHT22;7150;53.514;9.988;2023-03-17T00:25:31;12.60;60.20
14140;DHT22;7150;53.514;9.988;2023-03-17T00:28:01;12.60;60.30
14140;DHT22;7150;53.514;9.988;2023-03-17T00:30:28;12.60;60.30
14140;DHT22;7150;53.514;9.988;2023-03-17T00:32:55;12.60;60.50
14140;DHT22;7150;53.514;9.988;2023-03-17T00:35:28;12.60;60.40
14140;DHT22;7150;53.514;9.988;2023-03-17T00:37:56;12.60;60.40
14140;DHT22;7150;53.514;9.988;2023-03-17T00:40:24;12.60;60.50
14140;DHT22;7150;53.514;9.988;2023-03-17T00:42:51;12.50;60.40
14140;DHT22;7150;53.514;9.988;2023-03-17T00:45:18;12.60;60.60
14140;DHT22;7150;53.514;9.988;2023-03-17T00:47:45;12.50;60.40
14140;DHT22;7150;53.514;9.988;2023-03-17T00:50:14;12.50;60.50
14140;DHT22;7150;53.514;9.988;2023-03-17T00:52:42;12.50;60.60
14140;DHT22;7150;53.514;9.988;2023-03-17T00:55:08;12.50;60.70
14140;DHT22;7150;53.514;9.988;2023-03-17T00:57:36;12.40;60.80
14140;DHT22;7150;53.514;9.988;2023-03-17T01:00:03;12.40;60.90
14140;DHT22;7150;53.514;9.988;2023-03-17T01:02:29;12.40;61.00
14140;DHT22;7150;53.514;9.988;2023-03-17T01:04:55;12.40;61.10
14140;DHT22;7150;53.514;9.988;2023-03-17T01:07:22;12.40;61.20
14140;DHT22;7150;53.514;9.988;2023-03-17T01:09:48;12.40;61.40
14140;DHT22;7150;53.514;9.988;2023-03-17T01:12:14;12.40;61.40
14140;DHT22;7150;53.514;9.988;2023-03-17T01:14:39;12.40;61.40
14140;DHT22;7150;53.514;9.988;2023-03-17T01:17:14;12.30;61.30
14140;DHT22;7150;53.514;9.988;2023-03-17T01:19:40;12.30;61.40
14140;DHT22;7150;53.514;9.988;2023-03-17T01:22:06;12.30;61.60
14140;DHT22;7150;53.514;9.988;2023-03-17T01:24:33;12.30;61.60
14140;DHT22;7150;53.514;9.988;2023-03-17T01:26:59;12.30;61.60
14140;DHT22;7150;53.514;9.988;2023-03-17T01:29:24;12.30;61.90
14140;DHT22;7150;53.514;9.988;2023-03-17T01:31:51;12.30;61.90
14140;DHT22;7150;53.514;9.988;2023-03-17T01:34:17;12.30;62.20
14140;DHT22;7150;53.514;9.988;2023-03-17T01:36:43;12.20;62.30
14140;DHT22;7150;53.514;9.988;2023-03-17T01:39:08;12.20;62.50
14140;DHT22;7150;53.514;9.988;2023-03-17T01:41:35;12.20;62.50
14140;DHT22;7150;53.514;9.988;2023-03-17T01:44:02;12.20;62.30
14140;DHT22;7150;53.514;9.988;2023-03-17T01:46:30;12.20;62.40
14140;DHT22;7150;53.514;9.988;2023-03-17T01:49:19;12.20;62.60
14140;DHT22;7150;53.514;9.988;2023-03-17T01:54:40;12.00;62.90
14140;DHT22;7150;53.514;9.988;2023-03-17T01:59:55;12.00;62.80
14140;DHT22;7150;53.514;9.988;2023-03-17T02:02:27;11.90;63.00
14140;DHT22;7150;53.514;9.988;2023-03-17T02:04:56;11.90;63.10
14140;DHT22;7150;53.514;9.988;2023-03-17T02:07:23;11.90;63.30
14140;DHT22;7150;53.514;9.988;2023-03-17T02:09:49;11.80;63.40
14140;DHT22;7150;53.514;9.988;2023-03-17T02:12:17;11.90;63.60
14140;DHT22;7150;53.514;9.988;2023-03-17T02:14:43;11.80;63.70
14140;DHT22;7150;53.514;9.988;2023-03-17T02:17:08;11.80;63.80
14140;DHT22;7150;53.514;9.988;2023-03-17T02:19:34;11.80;64.00
14140;DHT22;7150;53.514;9.988;2023-03-17T02:22:06;11.80;64.10
14140;DHT22;7150;53.514;9.988;2023-03-17T02:24:50;11.90;64.00
14140;DHT22;7150;53.514;9.988;2023-03-17T02:27:20;11.90;64.00
14140;DHT22;7150;53.514;9.988;2023-03-17T02:29:47;11.80;64.10
14140;DHT22;7150;53.514;9.988;2023-03-17T02:32:21;11.80;64.20
14140;DHT22;7150;53.514;9.988;2023-03-17T02:34:47;11.80;64.30
14140;DHT22;7150;53.514;9.988;2023-03-17T02:37:14;11.80;64.40
14140;DHT22;7150;53.514;9.988;2023-03-17T02:39:40;11.80;64.40
14140;DHT22;7150;53.514;9.988;2023-03-17T02:42:06;11.80;64.30
14140;DHT22;7150;53.514;9.988;2023-03-17T02:44:31;11.90;64.50
14140;DHT22;7150;53.514;9.988;2023-03-17T02:46:58;11.80;64.40
14140;DHT22;7150;53.514;9.988;2023-03-17T02:49:24;11.90;64.60
14140;DHT22;7150;53.514;9.988;2023-03-17T02:51:50;11.90;64.70
14140;DHT22;7150;53.514;9.988;2023-03-17T02:54:16;11.90;64.70
14140;DHT22;7150;53.514;9.988;2023-03-17T02:56:41;11.90;64.80
14140;DHT22;7150;53.514;9.988;2023-03-17T02:59:07;11.90;64.80
14140;DHT22;7150;53.514;9.988;2023-03-17T03:01:33;11.90;64.80
14140;DHT22;7150;53.514;9.988;2023-03-17T03:04:04;11.90;65.00
14140;DHT22;7150;53.514;9.988;2023-03-17T03:06:29;11.90;65.00
14140;DHT22;7150;53.514;9.988;2023-03-17T03:08:56;11.90;65.10
14140;DHT22;7150;53.514;9.988;2023-03-17T03:11:21;11.90;65.00
14140;DHT22;7150;53.514;9.988;2023-03-17T03:13:47;11.90;65.80
14140;DHT22;7150;53.514;9.988;2023-03-17T03:16:13;11.90;65.10
14140;DHT22;7150;53.514;9.988;2023-03-17T03:18:39;11.90;65.20
14140;DHT22;7150;53.514;9.988;2023-03-17T03:21:05;11.90;65.30
14140;DHT22;7150;53.514;9.988;2023-03-17T03:23:31;11.90;65.50
14140;DHT22;7150;53.514;9.988;2023-03-17T03:25:57;12.10;65.70
14140;DHT22;7150;53.514;9.988;2023-03-17T03:28:22;11.90;65.60
14140;DHT22;7150;53.514;9.988;2023-03-17T03:30:48;11.90;65.60
14140;DHT22;7150;53.514;9.988;2023-03-17T03:33:23;11.90;65.60
14140;DHT22;7150;53.514;9.988;2023-03-17T03:35:48;11.90;65.70
14140;DHT22;7150;53.514;9.988;2023-03-17T03:38:14;11.90;65.80
14140;DHT22;7150;53.514;9.988;2023-03-17T03:40:39;11.90;65.80
14140;DHT22;7150;53.514;9.988;2023-03-17T03:43:05;11.90;65.80
14140;DHT22;7150;53.514;9.988;2023-03-17T03:45:31;11.90;65.90
14140;DHT22;7150;53.514;9.988;2023-03-17T03:47:57;11.90;66.10
14140;DHT22;7150;53.514;9.988;2023-03-17T03:50:23;11.90;66.10
14140;DHT22;7150;53.514;9.988;2023-03-17T03:52:48;11.90;66.10
14140;DHT22;7150;53.514;9.988;2023-03-17T03:55:14;11.90;66.10
14140;DHT22;7150;53.514;9.988;2023-03-17T03:57:40;11.90;66.10
14140;DHT22;7150;53.514;9.988;2023-03-17T04:00:08;11.90;66.20
14140;DHT22;7150;53.514;9.988;2023-03-17T04:02:35;11.90;66.30
14140;DHT22;7150;53.514;9.988;2023-03-17T04:05:00;11.80;66.20
14140;DHT22;7150;53.514;9.988;2023-03-17T04:07:26;11.80;66.30
14140;DHT22;7150;53.514;9.988;2023-03-17T04:09:52;11.80;66.30
14140;DHT22;7150;53.514;9.988;2023-03-17T04:12:17;11.80;66.30
14140;DHT22;7150;53.514;9.988;2023-03-17T04:14:43;11.80;66.40
14140;DHT22;7150;53.514;9.988;2023-03-17T04:17:10;11.80;66.50
14140;DHT22;7150;53.514;9.988;2023-03-17T04:19:37;11.80;67.10
14140;DHT22;7150;53.514;9.988;2023-03-17T04:22:03;11.80;66.40
14140;DHT22;7150;53.514;9.988;2023-03-17T04:24:28;11.70;66.50
14140;DHT22;7150;53.514;9.988;2023-03-17T04:26:54;11.70;66.50
14140;DHT22;7150;53.514;9.988;2023-03-17T04:29:20;11.70;66.60
14140;DHT22;7150;53.514;9.988;2023-03-17T04:31:45;11.70;66.50
14140;DHT22;7150;53.514;9.988;2023-03-17T04:34:16;11.70;66.40
14140;DHT22;7150;53.514;9.988;2023-03-17T04:36:44;11.70;66.50
14140;DHT22;7150;53.514;9.988;2023-03-17T04:39:10;11.70;66.60
14140;DHT22;7150;53.514;9.988;2023-03-17T04:41:36;11.70;66.70
14140;DHT22;7150;53.514;9.988;2023-03-17T04:44:02;11.70;66.70
14140;DHT22;7150;53.514;9.988;2023-03-17T04:46:27;11.60;66.60
14140;DHT22;7150;53.514;9.988;2023-03-17T04:48:53;11.60;66.70
14140;DHT22;7150;53.514;9.988;2023-03-17T04:51:19;11.60;66.80
14140;DHT22;7150;53.514;9.988;2023-03-17T04:53:45;11.60;67.00
14140;DHT22;7150;53.514;9.988;2023-03-17T04:56:10;11.50;67.00
14140;DHT22;7150;53.514;9.988;2023-03-17T04:58:36;11.60;67.10
14140;DHT22;7150;53.514;9.988;2023-03-17T05:01:02;11.60;67.10
14140;DHT22;7150;53.514;9.988;2023-03-17T05:03:28;11.50;67.00
14140;DHT22;7150;53.514;9.988;2023-03-17T05:05:57;11.50;67.10
14140;DHT22;7150;53.514;9.988;2023-03-17T05:08:24;11.50;67.20
14140;DHT22;7150;53.514;9.988;2023-03-17T05:10:51;11.50;67.30
14140;DHT22;7150;53.514;9.988;2023-03-17T05:13:17;11.40;67.30
14140;DHT22;7150;53.514;9.988;2023-03-17T05:15:46;11.40;67.50
14140;DHT22;7150;53.514;9.988;2023-03-17T05:18:11;11.40;67.50
14140;DHT22;7150;53.514;9.988;2023-03-17T05:20:37;11.40;67.50
14140;DHT22;7150;53.514;9.988;2023-03-17T05:23:02;11.40;67.60
14140;DHT22;7150;53.514;9.988;2023-03-17T05:25:28;11.40;67.80
14140;DHT22;7150;53.514;9.988;2023-03-17T05:27:53;11.40;67.80
14140;DHT22;7150;53.514;9.988;2023-03-17T05:30:19;11.40;67.90
14140;DHT22;7150;53.514;9.988;2023-03-17T05:32:44;11.40;68.00
14140;DHT22;7150;53.514;9.988;2023-03-17T05:35:11;11.40;68.00
14140;DHT22;7150;53.514;9.988;2023-03-17T05:37:36;11.40;68.00
14140;DHT22;7150;53.514;9.988;2023-03-17T05:40:02;11.30;67.70
14140;DHT22;7150;53.514;9.988;2023-03-17T05:42:27;11.30;68.40
14140;DHT22;7150;53.514;9.988;2023-03-17T05:44:53;11.30;67.80
14140;DHT22;7150;53.514;9.988;2023-03-17T05:47:19;11.30;68.00
14140;DHT22;7150;53.514;9.988;2023-03-17T05:49:45;11.20;68.00
14140;DHT22;7150;53.514;9.988;2023-03-17T05:52:13;11.20;68.00
14140;DHT22;7150;53.514;9.988;2023-03-17T05:54:39;11.30;68.10
14140;DHT22;7150;53.514;9.988;2023-03-17T05:57:04;11.30;68.00
14140;DHT22;7150;53.514;9.988;2023-03-17T05:59:30;11.30;68.00
14140;DHT22;7150;53.514;9.988;2023-03-17T06:01:56;11.30;68.20
14140;DHT22;7150;53.514;9.988;2023-03-17T06:04:21;11.20;68.00
14140;DHT22;7150;53.514;9.988;2023-03-17T06:06:47;11.20;68.00
14140;DHT22;7150;53.514;9.988;2023-03-17T06:09:13;11.30;68.10
14140;DHT22;7150;53.514;9.988;2023-03-17T06:11:39;11.20;68.20
14140;DHT22;7150;53.514;9.988;2023-03-17T06:14:06;11.30;68.30
14140;DHT22;7150;53.514;9.988;2023-03-17T06:16:31;11.30;68.40
14140;DHT22;7150;53.514;9.988;2023-03-17T06:18:57;11.30;68.30
14140;DHT22;7150;53.514;9.988;2023-03-17T06:21:23;11.30;68.30
14140;DHT22;7150;53.514;9.988;2023-03-17T06:23:48;11.30;68.30
14140;DHT22;7150;53.514;9.988;2023-03-17T06:26:14;11.40;68.50
14140;DHT22;7150;53.514;9.988;2023-03-17T06:28:40;11.30;68.40
14140;DHT22;7150;53.514;9.988;2023-03-17T06:31:06;11.40;68.50
14140;DHT22;7150;53.514;9.988;2023-03-17T06:33:33;11.40;68.60
14140;DHT22;7150;53.514;9.988;2023-03-17T06:35:59;11.30;68.40
14140;DHT22;7150;53.514;9.988;2023-03-17T06:38:26;11.40;68.50
14140;DHT22;7150;53.514;9.988;2023-03-17T06:40:51;11.40;68.60
14140;DHT22;7150;53.514;9.988;2023-03-17T06:43:17;11.50;68.70
14140;DHT22;7150;53.514;9.988;2023-03-17T06:45:44;11.50;68.60
14140;DHT22;7150;53.514;9.988;2023-03-17T06:48:10;11.50;68.80
14140;DHT22;7150;53.514;9.988;2023-03-17T06:50:35;11.50;68.70
14140;DHT22;7150;53.514;9.988;2023-03-17T06:53:01;11.50;68.70
14140;DHT22;7150;53.514;9.988;2023-03-17T06:55:27;11.60;68.80
14140;DHT22;7150;53.514;9.988;2023-03-17T06:57:52;11.50;68.90
14140;DHT22;7150;53.514;9.988;2023-03-17T07:00:19;11.50;68.90
14140;DHT22;7150;53.514;9.988;2023-03-17T07:02:45;11.60;69.70
14140;DHT22;7150;53.514;9.988;2023-03-17T07:05:11;11.60;69.00
14140;DHT22;7150;53.514;9.988;2023-03-17T07:07:38;11.60;69.20
14140;DHT22;7150;53.514;9.988;2023-03-17T07:10:04;11.70;69.40
14140;DHT22;7150;53.514;9.988;2023-03-17T07:12:30;11.70;69.30
14140;DHT22;7150;53.514;9.988;2023-03-17T07:14:57;11.80;69.10
14140;DHT22;7150;53.514;9.988;2023-03-17T07:17:22;11.90;69.80
14140;DHT22;7150;53.514;9.988;2023-03-17T07:19:48;11.90;69.00
14140;DHT22;7150;53.514;9.988;2023-03-17T07:22:14;12.00;69.10
14140;DHT22;7150;53.514;9.988;2023-03-17T07:24:40;12.00;69.00
14140;DHT22;7150;53.514;9.988;2023-03-17T07:27:07;12.10;69.00
14140;DHT22;7150;53.514;9.988;2023-03-17T07:29:33;12.10;69.00
14140;DHT22;7150;53.514;9.988;2023-03-17T07:31:59;12.20;68.70
14140;DHT22;7150;53.514;9.988;2023-03-17T07:34:25;12.20;68.50
14140;DHT22;7150;53.514;9.988;2023-03-17T07:36:50;12.20;68.20
14140;DHT22;7150;53.514;9.988;2023-03-17T07:39:16;12.30;68.20
14140;DHT22;7150;53.514;9.988;2023-03-17T07:41:42;12.30;68.10
14140;DHT22;7150;53.514;9.988;2023-03-17T07:44:08;12.40;68.00
14140;DHT22;7150;53.514;9.988;2023-03-17T07:46:35;12.50;67.90
14140;DHT22;7150;53.514;9.988;2023-03-17T07:49:02;12.60;67.80
14140;DHT22;7150;53.514;9.988;2023-03-17T07:51:28;12.60;67.70
14140;DHT22;7150;53.514;9.988;2023-03-17T07:53:54;12.70;67.50
14140;DHT22;7150;53.514;9.988;2023-03-17T07:56:28;12.80;67.50
14140;DHT22;7150;53.514;9.988;2023-03-17T07:58:53;12.80;67.40
14140;DHT22;7150;53.514;9.988;2023-03-17T08:01:19;12.80;67.00
14140;DHT22;7150;53.514;9.988;2023-03-17T08:03:45;12.90;67.10
14140;DHT22;7150;53.514;9.988;2023-03-17T08:06:11;12.90;67.00
14140;DHT22;7150;53.514;9.988;2023-03-17T08:08:36;12.90;66.90
14140;DHT22;7150;53.514;9.988;2023-03-17T08:11:03;13.00;67.10
14140;DHT22;7150;53.514;9.988;2023-03-17T08:13:33;13.00;67.30
14140;DHT22;7150;53.514;9.988;2023-03-17T08:15:59;13.10;67.30
14140;DHT22;7150;53.514;9.988;2023-03-17T08:18:25;13.20;67.40
14140;DHT22;7150;53.514;9.988;2023-03-17T08:20:50;13.30;67.40
14140;DHT22;7150;53.514;9.988;2023-03-17T08:23:17;13.30;68.00
14140;DHT22;7150;53.514;9.988;2023-03-17T08:25:43;13.30;67.20
14140;DHT22;7150;53.514;9.988;2023-03-17T08:28:08;13.40;67.10
14140;DHT22;7150;53.514;9.988;2023-03-17T08:30:35;13.50;67.10
14140;DHT22;7150;53.514;9.988;2023-03-17T08:33:01;13.50;67.00
14140;DHT22;7150;53.514;9.988;2023-03-17T08:35:27;13.60;67.00
14140;DHT22;7150;53.514;9.988;2023-03-17T08:37:53;13.60;67.10
14140;DHT22;7150;53.514;9.988;2023-03-17T08:40:18;13.70;67.40
14140;DHT22;7150;53.514;9.988;2023-03-17T08:42:46;13.70;67.40
14140;DHT22;7150;53.514;9.988;2023-03-17T08:45:13;13.80;67.40
14140;DHT22;7150;53.514;9.988;2023-03-17T08:47:39;13.90;67.40
14140;DHT22;7150;53.514;9.988;2023-03-17T08:50:08;13.90;67.30
14140;DHT22;7150;53.514;9.988;2023-03-17T08:52:34;14.00;66.90
14140;DHT22;7150;53.514;9.988;2023-03-17T08:55:00;14.00;66.40
14140;DHT22;7150;53.514;9.988;2023-03-17T08:57:26;14.10;66.20
14140;DHT22;7150;53.514;9.988;2023-03-17T08:59:52;14.20;66.10
14140;DHT22;7150;53.514;9.988;2023-03-17T09:02:18;14.20;65.80
14140;DHT22;7150;53.514;9.988;2023-03-17T09:04:43;14.30;65.70
14140;DHT22;7150;53.514;9.988;2023-03-17T09:07:09;14.40;65.60
14140;DHT22;7150;53.514;9.988;2023-03-17T09:09:35;14.60;65.50
14140;DHT22;7150;53.514;9.988;2023-03-17T09:12:01;14.60;65.40
14140;DHT22;7150;53.514;9.988;2023-03-17T09:14:27;14.70;65.30
14140;DHT22;7150;53.514;9.988;2023-03-17T09:16:53;14.80;65.30
14140;DHT22;7150;53.514;9.988;2023-03-17T09:19:19;14.80;65.30
14140;DHT22;7150;53.514;9.988;2023-03-17T09:21:46;14.90;65.00
14140;DHT22;7150;53.514;9.988;2023-03-17T09:24:12;14.90;64.60
14140;DHT22;7150;53.514;9.988;2023-03-17T09:26:37;15.00;64.40
14140;DHT22;7150;53.514;9.988;2023-03-17T09:29:03;15.00;64.40
14140;DHT22;7150;53.514;9.988;2023-03-17T09:31:30;15.10;64.40
14140;DHT22;7150;53.514;9.988;2023-03-17T09:33:55;15.20;64.60
14140;DHT22;7150;53.514;9.988;2023-03-17T09:36:22;15.20;64.00
14140;DHT22;7150;53.514;9.988;2023-03-17T09:38:48;15.20;64.10
14140;DHT22;7150;53.514;9.988;2023-03-17T09:49:49;15.20;64.50
14140;DHT22;7150;53.514;9.988;2023-03-17T09:52:21;15.40;64.70
14140;DHT22;7150;53.514;9.988;2023-03-17T09:54:49;15.40;64.60
14140;DHT22;7150;53.514;9.988;2023-03-17T09:57:18;15.50;64.70
14140;DHT22;7150;53.514;9.988;2023-03-17T09:59:49;15.60;64.80
14140;DHT22;7150;53.514;9.988;2023-03-17T10:02:21;15.60;64.70
14140;DHT22;7150;53.514;9.988;2023-03-17T10:04:48;15.70;65.00
14140;DHT22;7150;53.514;9.988;2023-03-17T10:07:18;15.70;65.00
14140;DHT22;7150;53.514;9.988;2023-03-17T10:09:57;15.80;65.00
14140;DHT22;7150;53.514;9.988;2023-03-17T10:12:35;15.80;65.20
14140;DHT22;7150;53.514;9.988;2023-03-17T10:18:12;16.00;65.30
14140;DHT22;7150;53.514;9.988;2023-03-17T10:20:47;16.00;65.10
14140;DHT22;7150;53.514;9.988;2023-03-17T10:23:18;16.10;64.90
14140;DHT22;7150;53.514;9.988;2023-03-17T10:25:44;16.10;65.00
14140;DHT22;7150;53.514;9.988;2023-03-17T10:28:15;16.10;65.10
14140;DHT22;7150;53.514;9.988;2023-03-17T10:30:45;16.20;65.10
14140;DHT22;7150;53.514;9.988;2023-03-17T10:33:10;16.20;65.00
14140;DHT22;7150;53.514;9.988;2023-03-17T10:35:37;16.30;65.00
14140;DHT22;7150;53.514;9.988;2023-03-17T10:38:22;16.40;64.80
14140;DHT22;7150;53.514;9.988;2023-03-17T10:41:14;16.40;64.60
14140;DHT22;7150;53.514;9.988;2023-03-17T10:43:46;16.50;64.60
14140;DHT22;7150;53.514;9.988;2023-03-17T10:46:20;16.60;64.60
14140;DHT22;7150;53.514;9.988;2023-03-17T10:48:56;16.60;64.80
14140;DHT22;7150;53.514;9.988;2023-03-17T10:51:35;16.70;64.50
14140;DHT22;7150;53.514;9.988;2023-03-17T10:54:08;16.70;64.30
14140;DHT22;7150;53.514;9.988;2023-03-17T10:56:35;16.80;63.80
14140;DHT22;7150;53.514;9.988;2023-03-17T10:59:29;16.80;63.50
14140;DHT22;7150;53.514;9.988;2023-03-17T11:02:00;16.80;63.30
14140;DHT22;7150;53.514;9.988;2023-03-17T11:04:31;16.90;63.40
14140;DHT22;7150;53.514;9.988;2023-03-17T11:06:58;16.90;63.50
14140;DHT22;7150;53.514;9.988;2023-03-17T11:09:25;16.90;63.50
14140;DHT22;7150;53.514;9.988;2023-03-17T11:12:05;16.90;63.70
14140;DHT22;7150;53.514;9.988;2023-03-17T11:14:31;17.00;63.80
14140;DHT22;7150;53.514;9.988;2023-03-17T11:17:00;17.00;63.50
14140;DHT22;7150;53.514;9.988;2023-03-17T11:19:55;17.10;63.30
14140;DHT22;7150;53.514;9.988;2023-03-17T11:22:30;17.00;63.10
14140;DHT22;7150;53.514;9.988;2023-03-17T11:25:03;17.10;63.20
14140;DHT22;7150;53.514;9.988;2023-03-17T11:27:35;17.20;62.50
14140;DHT22;7150;53.514;9.988;2023-03-17T11:30:35;17.20;61.70
14140;DHT22;7150;53.514;9.988;2023-03-17T11:35:49;17.40;60.10
14140;DHT22;7150;53.514;9.988;2023-03-17T11:38:30;17.40;60.00
14140;DHT22;7150;53.514;9.988;2023-03-17T11:57:25;17.70;59.60
14140;DHT22;7150;53.514;9.988;2023-03-17T11:59:57;17.80;59.50
14140;DHT22;7150;53.514;9.988;2023-03-17T12:02:39;17.80;59.30
14140;DHT22;7150;53.514;9.988;2023-03-17T12:07:55;17.90;59.10
14140;DHT22;7150;53.514;9.988;2023-03-17T12:10:32;17.90;59.20
14140;DHT22;7150;53.514;9.988;2023-03-17T12:13:17;18.00;59.20
14140;DHT22;7150;53.514;9.988;2023-03-17T12:15:47;18.00;59.80
14140;DHT22;7150;53.514;9.988;2023-03-17T12:21:10;18.10;59.50
14140;DHT22;7150;53.514;9.988;2023-03-17T12:31:36;18.20;58.90
14140;DHT22;7150;53.514;9.988;2023-03-17T12:34:19;18.20;59.00
14140;DHT22;7150;53.514;9.988;2023-03-17T12:36:46;18.30;58.90
14140;DHT22;7150;53.514;9.988;2023-03-17T12:39:15;18.30;59.10
14140;DHT22;7150;53.514;9.988;2023-03-17T12:47:42;18.50;59.00
14140;DHT22;7150;53.514;9.988;2023-03-17T12:50:27;18.50;59.10
14140;DHT22;7150;53.514;9.988;2023-03-17T12:55:41;18.70;59.00
14140;DHT22;7150;53.514;9.988;2023-03-17T12:58:28;18.70;58.60
14140;DHT22;7150;53.514;9.988;2023-03-17T13:01:13;18.70;58.70
14140;DHT22;7150;53.514;9.988;2023-03-17T13:06:29;18.70;59.00
14140;DHT22;7150;53.514;9.988;2023-03-17T13:08:55;18.80;59.50
14140;DHT22;7150;53.514;9.988;2023-03-17T13:11:50;18.80;58.90
14140;DHT22;7150;53.514;9.988;2023-03-17T13:14:25;18.80;58.80
14140;DHT22;7150;53.514;9.988;2023-03-17T13:17:01;18.80;58.60
14140;DHT22;7150;53.514;9.988;2023-03-17T13:19:32;18.80;58.80
14140;DHT22;7150;53.514;9.988;2023-03-17T13:24:44;18.90;58.80
14140;DHT22;7150;53.514;9.988;2023-03-17T13:27:39;18.90;58.80
14140;DHT22;7150;53.514;9.988;2023-03-17T13:33:17;18.90;59.00
14140;DHT22;7150;53.514;9.988;2023-03-17T13:41:09;19.00;59.30
14140;DHT22;7150;53.514;9.988;2023-03-17T13:46:39;19.00;59.30
14140;DHT22;7150;53.514;9.988;2023-03-17T13:49:22;19.00;59.00
14140;DHT22;7150;53.514;9.988;2023-03-17T13:52:12;19.00;59.00
14140;DHT22;7150;53.514;9.988;2023-03-17T13:54:48;19.00;58.70
14140;DHT22;7150;53.514;9.988;2023-03-17T13:57:26;19.10;58.80
14140;DHT22;7150;53.514;9.988;2023-03-17T14:00:20;19.10;58.60
14140;DHT22;7150;53.514;9.988;2023-03-17T14:02:47;19.20;58.60
14140;DHT22;7150;53.514;9.988;2023-03-17T14:05:21;19.20;58.60
14140;DHT22;7150;53.514;9.988;2023-03-17T14:08:00;19.20;58.70
14140;DHT22;7150;53.514;9.988;2023-03-17T14:10:30;19.30;58.70
14140;DHT22;7150;53.514;9.988;2023-03-17T14:13:21;19.30;59.00
14140;DHT22;7150;53.514;9.988;2023-03-17T14:20:57;19.50;58.60
14140;DHT22;7150;53.514;9.988;2023-03-17T14:23:24;19.50;58.50
14140;DHT22;7150;53.514;9.988;2023-03-17T14:25:50;19.60;58.40
14140;DHT22;7150;53.514;9.988;2023-03-17T14:28:23;19.70;58.40
14140;DHT22;7150;53.514;9.988;2023-03-17T14:30:55;19.70;58.40
14140;DHT22;7150;53.514;9.988;2023-03-17T14:33:28;19.80;58.70
14140;DHT22;7150;53.514;9.988;2023-03-17T14:36:00;19.80;58.70
14140;DHT22;7150;53.514;9.988;2023-03-17T14:38:27;19.80;58.70
14140;DHT22;7150;53.514;9.988;2023-03-17T14:41:20;19.80;59.10
14140;DHT22;7150;53.514;9.988;2023-03-17T14:43:47;19.80;58.90
14140;DHT22;7150;53.514;9.988;2023-03-17T14:46:13;19.80;58.50
14140;DHT22;7150;53.514;9.988;2023-03-17T14:48:41;19.80;58.60
14140;DHT22;7150;53.514;9.988;2023-03-17T14:51:23;19.80;58.90
14140;DHT22;7150;53.514;9.988;2023-03-17T14:53:51;19.80;59.10
14140;DHT22;7150;53.514;9.988;2023-03-17T14:56:22;19.70;59.20
14140;DHT22;7150;53.514;9.988;2023-03-17T14:58:50;19.70;59.10
14140;DHT22;7150;53.514;9.988;2023-03-17T15:01:17;19.70;59.30
14140;DHT22;7150;53.514;9.988;2023-03-17T15:04:04;19.70;59.40
14140;DHT22;7150;53.514;9.988;2023-03-17T15:06:30;19.70;58.90
14140;DHT22;7150;53.514;9.988;2023-03-17T15:08:58;19.60;58.80
14140;DHT22;7150;53.514;9.988;2023-03-17T15:11:42;19.60;58.80
14140;DHT22;7150;53.514;9.988;2023-03-17T15:16:49;19.70;58.40
14140;DHT22;7150;53.514;9.988;2023-03-17T15:21:48;19.60;58.50
14140;DHT22;7150;53.514;9.988;2023-03-17T15:24:35;19.50;58.50
14140;DHT22;7150;53.514;9.988;2023-03-17T15:27:03;19.50;58.60
14140;DHT22;7150;53.514;9.988;2023-03-17T15:29:29;19.40;59.20
14140;DHT22;7150;53.514;9.988;2023-03-17T15:32:09;19.30;59.20
14140;DHT22;7150;53.514;9.988;2023-03-17T15:34:35;19.30;59.20
14140;DHT22;7150;53.514;9.988;2023-03-17T15:37:00;19.20;59.50
14140;DHT22;7150;53.514;9.988;2023-03-17T15:39:26;19.20;59.50
14140;DHT22;7150;53.514;9.988;2023-03-17T15:41:51;19.20;59.40
14140;DHT22;7150;53.514;9.988;2023-03-17T15:44:17;19.10;59.30
14140;DHT22;7150;53.514;9.988;2023-03-17T15:46:43;19.10;59.40
14140;DHT22;7150;53.514;9.988;2023-03-17T15:49:10;19.10;59.60
14140;DHT22;7150;53.514;9.988;2023-03-17T15:51:36;19.00;59.70
14140;DHT22;7150;53.514;9.988;2023-03-17T15:54:02;19.00;59.50
14140;DHT22;7150;53.514;9.988;2023-03-17T15:56:28;19.00;59.80
14140;DHT22;7150;53.514;9.988;2023-03-17T15:58:54;18.90;59.60
14140;DHT22;7150;53.514;9.988;2023-03-17T16:01:19;18.90;59.50
14140;DHT22;7150;53.514;9.988;2023-03-17T16:03:46;18.90;59.60
14140;DHT22;7150;53.514;9.988;2023-03-17T16:06:16;18.90;59.80
14140;DHT22;7150;53.514;9.988;2023-03-17T16:08:41;18.90;59.90
14140;DHT22;7150;53.514;9.988;2023-03-17T16:11:15;18.90;60.00
14140;DHT22;7150;53.514;9.988;2023-03-17T16:13:43;18.90;60.30
14140;DHT22;7150;53.514;9.988;2023-03-17T16:16:16;18.80;60.30
14140;DHT22;7150;53.514;9.988;2023-03-17T16:18:42;18.80;60.10
14140;DHT22;7150;53.514;9.988;2023-03-17T16:21:08;18.80;59.80
14140;DHT22;7150;53.514;9.988;2023-03-17T16:23:34;18.80;59.80
14140;DHT22;7150;53.514;9.988;2023-03-17T16:26:00;18.80;60.00
14140;DHT22;7150;53.514;9.988;2023-03-17T16:28:28;18.80;60.20
14140;DHT22;7150;53.514;9.988;2023-03-17T16:30:55;18.80;60.50
14140;DHT22;7150;53.514;9.988;2023-03-17T16:33:23;18.80;60.60
14140;DHT22;7150;53.514;9.988;2023-03-17T16:35:50;18.80;60.80
14140;DHT22;7150;53.514;9.988;2023-03-17T16:38:24;18.80;60.70
14140;DHT22;7150;53.514;9.988;2023-03-17T16:40:52;18.70;60.60
14140;DHT22;7150;53.514;9.988;2023-03-17T16:43:32;18.70;60.90
14140;DHT22;7150;53.514;9.988;2023-03-17T16:45:59;18.70;60.80
14140;DHT22;7150;53.514;9.988;2023-03-17T16:48:26;18.70;60.90
14140;DHT22;7150;53.514;9.988;2023-03-17T16:50:52;18.70;60.60
14140;DHT22;7150;53.514;9.988;2023-03-17T16:53:18;18.70;60.60
14140;DHT22;7150;53.514;9.988;2023-03-17T16:55:44;18.60;60.70
14140;DHT22;7150;53.514;9.988;2023-03-17T17:00:47;18.50;61.00
14140;DHT22;7150;53.514;9.988;2023-03-17T17:03:13;18.50;61.00
14140;DHT22;7150;53.514;9.988;2023-03-17T17:05:43;18.50;61.10
14140;DHT22;7150;53.514;9.988;2023-03-17T17:08:08;18.40;61.10
14140;DHT22;7150;53.514;9.988;2023-03-17T17:10:36;18.40;61.30
14140;DHT22;7150;53.514;9.988;2023-03-17T17:13:04;18.40;61.50
14140;DHT22;7150;53.514;9.988;2023-03-17T17:15:30;18.30;61.70
14140;DHT22;7150;53.514;9.988;2023-03-17T17:17:59;18.30;62.00
14140;DHT22;7150;53.514;9.988;2023-03-17T17:20:29;18.30;62.20
14140;DHT22;7150;53.514;9.988;2023-03-17T17:22:57;18.20;62.40